Bache, Oklahoma
Current Conditions -  °F | °C
As of 8:53 AM on Wednesday 26 Nov 2014 (Local Time) from KMLC Reporting Station
Broken Clouds Broken Clouds  
Wind Chill: 41°   Ceiling: 12000
Heat Index: 45°   Visibility: 10mi
Dew Point: 30°   Wind: 8mph
Humidity: 56%   Direction: 280°W
Pressure: 30.08"   Gusts: NA
Location:  34.9351°N, 95.8929°W
Report Text: KMLC 261453Z AUTO 28007KT 10SM BKN120 07/M01 A3008 RMK AO2 SLP186 T00721011 53022
Loading
Personal Weather Stations






























Interactive Weather Map New forecast layout! Learn more

10-Day Weather Forecast

Advertisements
Track Severe Weather on mobile